Time;durP1;ratioP1;P1;durP2;ratioP2;P2;SDS_P1;SDS_P2;PMS_P1;PMS_P2;Temp;Humidity;BMP_temperature;BMP_pressure;BME280_temperature;BME280_humidity;BME280_pressure;Samples;Min_cycle;Max_cycle;Signal;HPM_P1;HPM_P2
2022/11/20 00:01:28;;;;;;;19.35;10.28;;;;;;;2.95;100.00;101617.77;1772528;80;21031;-79
2022/11/20 00:03:57;;;;;;;22.42;11.55;;;;;;;2.97;100.00;101614.39;1772706;80;21164;-79
2022/11/20 00:06:25;;;;;;;28.65;13.35;;;;;;;2.96;100.00;101600.77;1772450;81;21035;-79
2022/11/20 00:08:54;;;;;;;26.30;12.90;;;;;;;2.95;100.00;101596.47;1772788;81;21063;-79
2022/11/20 00:11:23;;;;;;;30.30;12.58;;;;;;;2.93;100.00;101619.27;1772704;81;20990;-84
2022/11/20 00:13:52;;;;;;;25.68;12.05;;;;;;;2.94;100.00;101633.40;1772184;81;20996;-79
2022/11/20 00:16:22;;;;;;;26.25;11.93;;;;;;;2.92;100.00;101624.28;1760656;80;21084;-80
2022/11/20 00:18:48;;;;;;;27.25;12.93;;;;;;;2.93;100.00;101626.44;1773650;80;20971;-79
2022/11/20 00:21:19;;;;;;;27.27;12.33;;;;;;;2.91;100.00;101641.75;1773789;80;21505;-79
2022/11/20 00:23:45;;;;;;;24.25;11.43;;;;;;;2.92;100.00;101646.09;1773878;80;20991;-79
2022/11/20 00:26:15;;;;;;;28.77;12.33;;;;;;;2.90;100.00;101639.60;1773721;80;21033;-79
2022/11/20 00:28:42;;;;;;;22.85;10.70;;;;;;;2.93;100.00;101641.89;1773756;80;21075;-75
2022/11/20 00:31:14;;;;;;;26.33;11.53;;;;;;;2.95;100.00;101632.41;1773417;79;21006;-79
2022/11/20 00:33:42;;;;;;;23.98;11.25;;;;;;;2.93;100.00;101631.25;1670585;84;20951;-76
2022/11/20 00:36:15;;;;;;;21.87;10.35;;;;;;;2.89;100.00;101644.62;1694335;84;21621;-79
2022/11/20 00:38:41;;;;;;;22.70;11.40;;;;;;;2.88;100.00;101652.29;1692170;84;21087;-77
2022/11/20 00:41:10;;;;;;;24.27;10.90;;;;;;;2.80;100.00;101654.20;1694447;84;21099;-80
2022/11/20 00:43:37;;;;;;;22.30;10.18;;;;;;;2.77;100.00;101653.24;1694282;84;21015;-77
2022/11/20 00:46:11;;;;;;;24.50;10.80;;;;;;;2.76;100.00;101650.23;1694118;83;21094;-80
2022/11/20 00:48:37;;;;;;;23.75;10.82;;;;;;;2.71;100.00;101665.44;1664615;85;21080;-79
2022/11/20 00:51:03;;;;;;;22.95;10.98;;;;;;;2.73;100.00;101672.20;1668726;85;20913;-80
2022/11/20 00:53:29;;;;;;;24.37;10.75;;;;;;;2.80;100.00;101680.31;1668740;84;21161;-79
2022/11/20 00:55:59;;;;;;;21.70;10.75;;;;;;;2.84;100.00;101671.45;1668507;84;20937;-79
2022/11/20 00:58:31;;;;;;;24.00;10.72;;;;;;;2.84;100.00;101664.30;1668469;85;21163;-79
2022/11/20 01:01:10;;;;;;;21.73;10.45;;;;;;;2.87;100.00;101668.43;1613661;88;21045;-80
2022/11/20 01:03:43;;;;;;;24.67;10.90;;;;;;;2.89;100.00;101663.76;1613694;88;21057;-79
2022/11/20 01:06:19;;;;;;;21.52;10.95;;;;;;;2.89;100.00;101651.27;1613824;88;21929;-79
2022/11/20 01:08:46;;;;;;;23.15;11.18;;;;;;;2.86;100.00;101656.96;1611091;88;21579;-83
2022/11/20 01:11:16;;;;;;;22.95;10.85;;;;;;;2.86;100.00;101650.81;1613522;88;21140;-78
2022/11/20 01:13:43;;;;;;;24.15;10.93;;;;;;;2.83;100.00;101644.53;1557366;91;21105;-79
2022/11/20 01:16:16;;;;;;;21.37;10.40;;;;;;;2.80;100.00;101634.25;1558066;92;21610;-79
2022/11/20 01:18:46;;;;;;;23.47;11.10;;;;;;;2.76;100.00;101624.45;1558334;92;21462;-79
2022/11/20 01:21:16;;;;;;;21.05;10.23;;;;;;;2.72;100.00;101612.02;1558138;92;21206;-83
2022/11/20 01:23:43;;;;;;;26.30;11.68;;;;;;;2.67;100.00;101621.04;1534206;93;21573;-79
2022/11/20 01:26:14;;;;;;;24.12;11.12;;;;;;;2.63;100.00;101609.12;1534197;93;21597;-84
2022/11/20 01:28:41;;;;;;;23.50;11.08;;;;;;;2.63;100.00;101598.98;1506827;95;21119;-78
2022/11/20 01:31:17;;;;;;;25.48;11.22;;;;;;;2.60;100.00;101600.17;1524708;93;22007;-80
2022/11/20 01:33:46;;;;;;;23.70;10.70;;;;;;;2.59;100.00;101612.31;1514032;93;21121;-79
2022/11/20 01:36:14;;;;;;;24.65;11.53;;;;;;;2.61;100.00;101613.79;1521988;93;21112;-76
2022/11/20 01:38:41;;;;;;;27.02;11.65;;;;;;;2.66;100.00;101609.27;1538864;93;21128;-77
2022/11/20 01:41:09;;;;;;;24.87;10.80;;;;;;;2.61;100.00;101607.64;1521842;93;21085;-80
2022/11/20 01:43:35;;;;;;;24.00;11.22;;;;;;;2.60;100.00;101617.47;1538614;91;21074;-79
2022/11/20 01:46:19;;;;;;;21.82;10.68;;;;;;;2.58;100.00;101613.33;1555722;90;21060;-76
2022/11/20 01:49:05;;;;;;;;;;;;;;;2.59;100.00;101617.63;1588576;90;21161;-79
2022/11/20 01:51:45;;;;;;;21.68;10.65;;;;;;;2.56;100.00;101620.66;1585991;90;20212;-78
2022/11/20 01:54:17;;;;;;;22.37;10.48;;;;;;;2.54;100.00;101602.23;1585979;90;21651;-77
2022/11/20 01:56:46;;;;;;;23.12;10.10;;;;;;;2.53;100.00;101603.25;1510734;93;21835;-78
2022/11/20 01:59:15;;;;;;;21.93;10.65;;;;;;;2.54;100.00;101602.23;1495809;94;21169;-76
2022/11/20 02:01:41;;;;;;;25.30;11.10;;;;;;;2.51;100.00;101606.59;1472845;97;21624;-77
2022/11/20 02:04:09;;;;;;;21.97;10.98;;;;;;;2.48;100.00;101609.61;1496047;93;21069;-79
2022/11/20 02:06:43;;;;;;;24.23;11.48;;;;;;;2.53;100.00;101615.70;1473054;97;21176;-79
2022/11/20 02:09:09;;;;;;;22.75;10.85;;;;;;;2.55;100.00;101611.86;1532077;92;21634;-76
2022/11/20 02:11:35;;;;;;;20.57;10.55;;;;;;;2.57;100.00;101593.89;1563131;90;21162;-79
2022/11/20 02:14:01;;;;;;;23.42;11.68;;;;;;;2.56;100.00;101584.74;1562614;90;21102;-76
2022/11/20 02:16:41;;;;;;;25.43;11.88;;;;;;;2.52;100.00;101559.02;1555693;92;21107;-80
2022/11/20 02:19:19;;;;;;;23.83;11.55;;;;;;;2.47;100.00;101558.25;1516686;94;21066;-79
2022/11/20 02:22:07;;;;;;;24.98;11.48;;;;;;;2.42;100.00;101583.73;1525689;94;21389;-78
2022/11/20 02:24:33;;;;;;;29.37;12.00;;;;;;;2.38;100.00;101597.06;1525865;93;21233;-78
2022/11/20 02:27:12;;;;;;;25.55;11.68;;;;;;;2.32;100.00;101593.28;1527341;93;21326;-79
2022/11/20 02:29:52;;;;;;;28.80;13.10;;;;;;;2.35;100.00;101586.78;1529378;92;21081;-79
2022/11/20 02:32:33;;;;;;;26.30;11.65;;;;;;;2.26;100.00;101590.88;1552240;92;21856;-79
2022/11/20 02:35:10;;;;;;;28.42;12.73;;;;;;;2.26;100.00;101594.86;1547449;92;21232;-79
2022/11/20 02:37:39;;;;;;;28.57;12.95;;;;;;;2.29;100.00;101608.27;1545825;92;21108;-79
2022/11/20 02:40:07;;;;;;;28.85;12.40;;;;;;;2.36;100.00;101608.41;1547254;92;21684;-79
2022/11/20 02:42:33;;;;;;;28.65;13.35;;;;;;;2.41;100.00;101616.64;1547124;92;21033;-77
2022/11/20 02:44:59;;;;;;;23.32;11.05;;;;;;;2.42;100.00;101611.67;1547215;92;21202;-80
2022/11/20 02:47:25;;;;;;;22.98;11.12;;;;;;;2.38;100.00;101619.19;1547271;92;21913;-79
2022/11/20 02:49:51;;;;;;;29.37;11.85;;;;;;;2.39;100.00;101624.00;1547236;92;21026;-78
2022/11/20 02:52:17;;;;;;;23.62;10.70;;;;;;;2.42;100.00;101631.11;1547221;92;20958;-80
2022/11/20 02:54:43;;;;;;;27.00;11.43;;;;;;;2.44;100.00;101629.11;1536954;92;21610;-79
2022/11/20 02:57:09;;;;;;;23.55;11.08;;;;;;;2.41;100.00;101614.84;1604304;89;20977;-79
2022/11/20 02:59:34;;;;;;;23.05;11.35;;;;;;;2.35;100.00;101602.74;1611856;89;22018;-79
2022/11/20 03:02:00;;;;;;;23.52;11.88;;;;;;;2.23;100.00;101597.85;1611738;89;20894;-80
2022/11/20 03:04:26;;;;;;;26.25;12.15;;;;;;;2.23;100.00;101597.03;1611861;89;21762;-79
2022/11/20 03:06:52;;;;;;;25.85;12.13;;;;;;;2.24;100.00;101602.19;1636566;87;21073;-76
2022/11/20 03:09:18;;;;;;;30.12;13.40;;;;;;;2.21;100.00;101586.59;1639534;87;20927;-80
2022/11/20 03:11:44;;;;;;;24.80;12.23;;;;;;;2.19;100.00;101582.45;1639268;87;21921;-79
2022/11/20 03:14:10;;;;;;;24.98;11.65;;;;;;;2.12;100.00;101581.50;1648264;85;21215;-86
2022/11/20 03:16:36;;;;;;;29.42;13.13;;;;;;;2.08;100.00;101578.38;1662187;86;21716;-79
2022/11/20 03:19:02;;;;;;;27.55;12.15;;;;;;;2.08;100.00;101574.90;1662324;86;21038;-76
2022/11/20 03:21:28;;;;;;;26.68;12.70;;;;;;;2.07;100.00;101583.89;1662151;86;21669;-79
2022/11/20 03:23:54;;;;;;;25.82;12.20;;;;;;;1.99;100.00;101608.70;1670592;81;21108;-76
2022/11/20 03:26:24;;;;;;;26.12;11.78;;;;;;;1.96;100.00;101617.03;1769731;80;21030;-85
2022/11/20 03:28:54;;;;;;;33.78;12.45;;;;;;;2.02;100.00;101627.77;1723647;83;21069;-82
2022/11/20 03:31:25;;;;;;;26.62;12.55;;;;;;;2.08;100.00;101630.22;1679844;85;21025;-79
2022/11/20 03:33:51;;;;;;;25.92;12.20;;;;;;;2.15;100.00;101615.73;1680106;85;21021;-80
2022/11/20 03:36:19;;;;;;;28.47;12.90;;;;;;;2.16;100.00;101603.58;1679918;85;21170;-78
2022/11/20 03:38:46;;;;;;;28.50;12.85;;;;;;;2.15;100.00;101615.23;1679754;85;21021;-78
2022/11/20 03:41:17;;;;;;;28.55;13.18;;;;;;;2.12;100.00;101606.28;1675942;85;22318;-77
2022/11/20 03:43:53;;;;;;;30.20;13.45;;;;;;;2.11;100.00;101604.61;1679815;85;21018;-79
2022/11/20 03:46:20;;;;;;;28.98;12.90;;;;;;;2.10;100.00;101612.27;1677786;85;21048;-79
2022/11/20 03:48:46;;;;;;;29.18;13.55;;;;;;;2.08;100.00;101612.94;1679854;85;21710;-87
2022/11/20 03:51:26;;;;;;;28.57;13.22;;;;;;;2.06;100.00;101622.95;1679623;85;21045;-80
2022/11/20 03:53:55;;;;;;;29.40;13.32;;;;;;;2.03;100.00;101633.44;1677737;85;21542;-79
2022/11/20 03:56:25;;;;;;;29.42;12.88;;;;;;;2.03;100.00;101630.77;1679628;85;21053;-86
2022/11/20 03:58:54;;;;;;;28.25;13.08;;;;;;;1.99;100.00;101637.44;1679744;85;21081;-84
2022/11/20 04:01:25;;;;;;;30.60;13.40;;;;;;;1.98;100.00;101654.91;1566955;90;21156;-79
2022/11/20 04:03:56;;;;;;;27.20;12.55;;;;;;;2.02;100.00;101665.50;1584932;90;21097;-83
2022/11/20 04:06:26;;;;;;;26.25;11.80;;;;;;;2.05;100.00;101675.27;1563828;91;21070;-77
2022/11/20 04:08:55;;;;;;;29.87;13.03;;;;;;;2.10;100.00;101675.26;1585557;90;21622;-80
2022/11/20 04:11:29;;;;;;;33.02;13.18;;;;;;;2.10;100.00;101675.26;1563676;91;21086;-78
2022/11/20 04:14:01;;;;;;;31.48;13.32;;;;;;;2.09;100.00;101674.44;1561338;91;22020;-79
2022/11/20 04:16:31;;;;;;;32.08;14.53;;;;;;;2.10;100.00;101671.27;1550526;92;21181;-79
2022/11/20 04:19:00;;;;;;;42.78;15.03;;;;;;;2.04;100.00;101657.67;1550516;92;21171;-79
2022/11/20 04:21:28;;;;;;;30.52;13.25;;;;;;;2.03;100.00;101661.86;1550594;92;21114;-79
2022/11/20 04:23:54;;;;;;;27.22;12.65;;;;;;;2.02;100.00;101664.98;1550358;92;21706;-80
2022/11/20 04:26:23;;;;;;;25.90;11.88;;;;;;;1.99;100.00;101657.88;1550601;92;21177;-85
2022/11/20 04:28:49;;;;;;;26.35;12.68;;;;;;;1.95;100.00;101661.39;1533874;93;21063;-79
2022/11/20 04:31:20;;;;;;;27.13;12.47;;;;;;;1.98;100.00;101656.23;1534048;93;21091;-79
2022/11/20 04:33:46;;;;;;;25.43;12.05;;;;;;;1.91;100.00;101652.12;1534768;90;21660;-80
2022/11/20 04:36:17;;;;;;;27.17;11.83;;;;;;;1.87;100.00;101636.70;1567392;91;21100;-79
2022/11/20 04:38:43;;;;;;;26.12;12.30;;;;;;;1.85;100.00;101621.42;1606457;86;21189;-79
2022/11/20 04:41:19;;;;;;;29.45;13.20;;;;;;;1.82;100.00;101618.61;1655489;86;21110;-79
2022/11/20 04:43:51;;;;;;;32.50;14.47;;;;;;;1.76;100.00;101613.50;1655590;86;21091;-80
2022/11/20 04:46:19;;;;;;;29.40;13.55;;;;;;;1.75;100.00;101619.83;1655735;86;21061;-79
2022/11/20 04:48:46;;;;;;;29.32;13.10;;;;;;;1.75;100.00;101625.14;1655691;86;21521;-79
2022/11/20 04:51:13;;;;;;;34.78;14.95;;;;;;;1.77;100.00;101610.37;1655680;86;21082;-80
2022/11/20 04:53:39;;;;;;;31.97;14.28;;;;;;;1.81;100.00;101610.33;1655608;86;21064;-80
2022/11/20 04:56:08;;;;;;;29.77;13.32;;;;;;;1.68;100.00;101618.89;1655688;86;20936;-79
2022/11/20 04:58:35;;;;;;;31.60;13.50;;;;;;;1.71;100.00;101627.84;1655489;86;21016;-79
2022/11/20 05:01:07;;;;;;;31.62;13.05;;;;;;;1.74;100.00;101629.32;1655620;86;21138;-77
2022/11/20 05:03:33;;;;;;;30.05;13.53;;;;;;;1.73;100.00;101621.83;1652664;86;21194;-79
2022/11/20 05:06:03;;;;;;;25.80;12.33;;;;;;;1.65;100.00;101623.70;1655559;86;21003;-80
2022/11/20 05:08:31;;;;;;;27.65;13.10;;;;;;;1.66;100.00;101629.36;1639890;87;21124;-80
2022/11/20 05:11:08;;;;;;;27.15;12.35;;;;;;;1.62;100.00;101626.23;1644500;87;21532;-80
2022/11/20 05:13:34;;;;;;;28.90;12.73;;;;;;;1.56;100.00;101634.40;1684813;82;21090;-79
2022/11/20 05:16:06;;;;;;;26.48;12.98;;;;;;;1.57;100.00;101624.09;1723633;82;21106;-84
2022/11/20 05:18:34;;;;;;;26.90;12.05;;;;;;;1.62;100.00;101632.88;1723801;83;21039;-78
2022/11/20 05:21:00;;;;;;;24.27;11.43;;;;;;;1.61;100.00;101659.09;1723599;83;21027;-80
2022/11/20 05:23:27;;;;;;;28.70;12.50;;;;;;;1.60;100.00;101662.77;1723884;83;21074;-79
2022/11/20 05:25:55;;;;;;;31.12;13.18;;;;;;;1.64;100.00;101667.23;1724008;83;21123;-78
2022/11/20 05:28:22;;;;;;;34.92;14.20;;;;;;;1.62;100.00;101654.13;1723774;83;21102;-81
2022/11/20 05:30:49;;;;;;;33.73;13.85;;;;;;;1.69;100.00;101644.45;1723797;83;20948;-80
2022/11/20 05:33:15;;;;;;;27.20;13.15;;;;;;;1.64;100.00;101644.14;1723680;83;21579;-78
2022/11/20 05:35:42;;;;;;;30.77;14.68;;;;;;;1.65;100.00;101648.47;1723782;83;21079;-79
2022/11/20 05:38:08;;;;;;;28.40;13.08;;;;;;;1.66;100.00;101649.29;1723815;83;21063;-80
2022/11/20 05:40:34;;;;;;;28.15;13.20;;;;;;;1.62;100.00;101647.49;1723778;83;21638;-81
2022/11/20 05:43:01;;;;;;;30.95;13.60;;;;;;;1.61;100.00;101656.44;1723852;83;21023;-85
2022/11/20 05:45:27;;;;;;;31.45;13.03;;;;;;;1.67;100.00;101651.76;1723806;83;21133;-80
2022/11/20 05:47:53;;;;;;;30.60;13.28;;;;;;;1.63;100.00;101664.25;1723569;83;20996;-78
2022/11/20 05:50:19;;;;;;;28.87;12.93;;;;;;;1.63;100.00;101656.28;1723929;83;21024;-80
2022/11/20 05:52:45;;;;;;;27.27;12.23;;;;;;;1.67;100.00;101661.56;1723964;83;21743;-80
2022/11/20 05:55:11;;;;;;;32.50;13.08;;;;;;;1.70;100.00;101659.88;1723805;83;21010;-82
2022/11/20 05:57:37;;;;;;;33.30;13.75;;;;;;;1.66;100.00;101649.29;1723857;83;21135;-80
2022/11/20 06:00:05;;;;;;;31.77;13.50;;;;;;;1.66;100.00;101658.59;1723703;83;21528;-81
2022/11/20 06:02:34;;;;;;;35.65;14.07;;;;;;;1.71;100.00;101647.77;1723565;83;21511;-78
2022/11/20 06:05:00;;;;;;;32.05;13.98;;;;;;;1.73;100.00;101627.64;1723717;83;21387;-83
2022/11/20 06:07:26;;;;;;;33.85;13.60;;;;;;;1.78;100.00;101600.88;1723655;83;21602;-80
2022/11/20 06:09:52;;;;;;;38.75;15.88;;;;;;;1.73;100.00;101613.03;1722802;83;21110;-79
2022/11/20 06:12:18;;;;;;;36.20;15.25;;;;;;;1.73;100.00;101612.52;1764871;80;20844;-79
2022/11/20 06:14:43;;;;;;;33.00;14.45;;;;;;;1.71;100.00;101595.13;1781176;80;20896;-80
2022/11/20 06:17:10;;;;;;;38.20;14.87;;;;;;;1.75;100.00;101594.59;1779183;80;21298;-81
2022/11/20 06:19:36;;;;;;;31.82;13.93;;;;;;;1.70;100.00;101590.80;1779564;80;21440;-80
2022/11/20 06:22:02;;;;;;;34.45;14.35;;;;;;;1.82;100.00;101588.05;1779523;80;20991;-79
2022/11/20 06:24:28;;;;;;;32.17;13.68;;;;;;;1.85;100.00;101573.59;1779221;80;20947;-81
2022/11/20 06:26:54;;;;;;;33.95;13.85;;;;;;;1.72;100.00;101577.67;1779776;80;20889;-78
2022/11/20 06:29:19;;;;;;;31.87;13.80;;;;;;;1.80;100.00;101578.95;1796972;78;21151;-81
2022/11/20 06:31:45;;;;;;;33.60;14.15;;;;;;;1.76;100.00;101571.49;1718738;83;20923;-82
2022/11/20 06:34:11;;;;;;;36.53;14.58;;;;;;;1.80;100.00;101582.93;1719799;83;21022;-79
2022/11/20 06:36:38;;;;;;;33.33;14.28;;;;;;;1.79;100.00;101576.45;1719862;83;21022;-81
2022/11/20 06:39:04;;;;;;;31.95;13.58;;;;;;;1.87;100.00;101568.93;1720044;83;20963;-82
2022/11/20 06:41:30;;;;;;;36.68;13.90;;;;;;;1.79;100.00;101572.47;1720420;81;21004;-81
2022/11/20 06:43:56;;;;;;;32.38;14.05;;;;;;;1.74;100.00;101591.61;1721888;83;21026;-80
2022/11/20 06:46:22;;;;;;;30.97;13.40;;;;;;;1.81;100.00;101585.08;1719377;83;21080;-81
2022/11/20 06:48:49;;;;;;;33.02;14.07;;;;;;;1.89;100.00;101573.06;1720357;81;21026;-80
2022/11/20 06:51:16;;;;;;;36.95;14.65;;;;;;;1.87;100.00;101587.03;1720003;83;21706;-81
2022/11/20 06:53:42;;;;;;;31.42;13.75;;;;;;;1.87;100.00;101595.50;1692977;83;21142;-78
2022/11/20 06:56:09;;;;;;;36.40;14.98;;;;;;;1.90;100.00;101589.84;1710155;80;21474;-82
2022/11/20 06:58:36;;;;;;;31.87;13.45;;;;;;;2.02;100.00;101566.63;1732530;80;20960;-82
2022/11/20 07:01:13;;;;;;;33.13;13.68;;;;;;;1.97;100.00;101558.39;1756522;81;21072;-83
2022/11/20 07:03:40;;;;;;;30.97;13.30;;;;;;;2.03;100.00;101570.96;1750148;80;21086;-82
2022/11/20 07:06:06;;;;;;;37.30;15.25;;;;;;;2.19;100.00;101566.50;1795699;78;21245;-81
2022/11/20 07:08:33;;;;;;;31.30;14.13;;;;;;;2.15;100.00;101560.72;1819050;77;21071;-81
2022/11/20 07:11:02;;;;;;;39.38;15.38;;;;;;;2.12;100.00;101565.55;1796795;77;21393;-81
2022/11/20 07:13:29;;;;;;;32.13;14.43;;;;;;;2.13;100.00;101558.73;1816664;77;21079;-81
2022/11/20 07:16:05;;;;;;;36.58;14.45;;;;;;;2.26;100.00;101556.30;1803076;77;21035;-83
2022/11/20 07:18:31;;;;;;;34.60;14.98;;;;;;;2.14;100.00;101559.05;1798453;77;21032;-79
2022/11/20 07:21:07;;;;;;;37.88;15.53;;;;;;;2.14;100.00;101557.72;1817824;77;20966;-82
2022/11/20 07:23:33;;;;;;;37.65;14.28;;;;;;;2.03;100.00;101562.98;1845377;77;20985;-78
2022/11/20 07:26:09;;;;;;;32.60;14.00;;;;;;;2.05;100.00;101572.09;1858188;77;21055;-80
2022/11/20 07:28:36;;;;;;;36.70;15.70;;;;;;;2.05;100.00;101581.40;1787189;80;21161;-79
2022/11/20 07:31:03;;;;;;;29.50;12.85;;;;;;;2.06;100.00;101588.39;1786794;79;21089;-80
2022/11/20 07:33:31;;;;;;;37.63;15.48;;;;;;;2.09;100.00;101592.02;1787058;79;21020;-79
2022/11/20 07:36:03;;;;;;;37.23;15.53;;;;;;;2.16;100.00;101595.59;1727100;81;21598;-78
2022/11/20 07:38:29;;;;;;;38.58;15.43;;;;;;;2.09;100.00;101576.06;1609922;87;21164;-79
2022/11/20 07:40:57;;;;;;;38.67;14.80;;;;;;;2.09;100.00;101588.03;1620895;87;21069;-79
2022/11/20 07:43:25;;;;;;;31.87;13.35;;;;;;;2.13;100.00;101589.82;1609447;87;21149;-79
2022/11/20 07:45:51;;;;;;;29.55;13.03;;;;;;;2.10;100.00;101597.65;1593581;87;21062;-85
2022/11/20 07:48:17;;;;;;;30.95;13.20;;;;;;;2.12;100.00;101614.26;1591352;88;21126;-78
2022/11/20 07:50:43;;;;;;;29.07;12.43;;;;;;;2.10;100.00;101632.72;1629077;87;20928;-78
2022/11/20 07:53:09;;;;;;;29.37;12.43;;;;;;;2.12;100.00;101618.72;1622221;87;21053;-78
2022/11/20 07:55:35;;;;;;;29.23;12.33;;;;;;;2.15;100.00;101623.20;1613630;87;21196;-78
2022/11/20 07:58:01;;;;;;;30.30;12.50;;;;;;;2.19;100.00;101605.88;1617348;87;21015;-79
2022/11/20 08:00:27;;;;;;;27.13;11.65;;;;;;;2.23;100.00;101611.66;1610959;87;20927;-78
2022/11/20 08:02:53;;;;;;;31.60;12.53;;;;;;;2.30;100.00;101622.42;1620422;87;21683;-78
2022/11/20 08:05:19;;;;;;;29.20;12.43;;;;;;;2.32;100.00;101632.36;1622030;87;21071;-80
2022/11/20 08:07:45;;;;;;;26.30;12.25;;;;;;;2.29;100.00;101625.56;1606932;89;21589;-79
2022/11/20 08:10:15;;;;;;;28.32;12.47;;;;;;;2.31;100.00;101610.26;1606947;89;21593;-77
2022/11/20 08:15:33;;;;;;;30.00;12.23;;;;;;;2.32;100.00;101585.81;1610906;87;21112;-78
2022/11/20 08:18:06;;;;;;;31.37;13.45;;;;;;;2.33;100.00;101590.97;1606953;89;21654;-79
2022/11/20 08:20:34;;;;;;;29.95;12.43;;;;;;;2.27;100.00;101591.19;1607058;89;21128;-78
2022/11/20 08:23:02;;;;;;;31.60;12.55;;;;;;;2.25;100.00;101610.98;1606916;89;21070;-79
2022/11/20 08:25:30;;;;;;;29.63;12.10;;;;;;;2.27;100.00;101622.28;1652397;85;21045;-79
2022/11/20 08:28:01;;;;;;;29.72;12.18;;;;;;;2.30;100.00;101608.62;1629793;88;21071;-79
2022/11/20 08:30:28;;;;;;;30.75;12.47;;;;;;;2.33;100.00;101569.69;1629848;88;21128;-79
2022/11/20 08:32:54;;;;;;;28.15;12.45;;;;;;;2.37;100.00;101559.51;1640014;86;21873;-79
2022/11/20 08:35:21;;;;;;;33.08;13.32;;;;;;;2.33;100.00;101572.86;1650558;86;21034;-86
2022/11/20 08:37:48;;;;;;;35.20;13.83;;;;;;;2.35;100.00;101559.67;1650429;86;21104;-79
2022/11/20 08:40:15;;;;;;;41.73;15.18;;;;;;;2.37;100.00;101569.64;1650285;86;21637;-80
2022/11/20 08:42:51;;;;;;;50.80;18.90;;;;;;;2.41;100.00;101548.81;1721907;82;21037;-83
2022/11/20 08:45:18;;;;;;;36.70;15.25;;;;;;;2.41;100.00;101522.22;1735458;82;21089;-80
2022/11/20 08:47:45;;;;;;;39.63;15.98;;;;;;;2.40;100.00;101532.03;1735698;82;21045;-79
2022/11/20 08:50:14;;;;;;;33.95;13.78;;;;;;;2.40;100.00;101536.53;1735510;82;21014;-78
2022/11/20 08:52:41;;;;;;;37.83;14.75;;;;;;;2.38;100.00;101531.89;1735565;82;21347;-84
2022/11/20 08:55:08;;;;;;;35.83;14.05;;;;;;;2.44;100.00;101515.20;1734974;82;21151;-79
2022/11/20 08:57:36;;;;;;;37.73;15.38;;;;;;;2.41;100.00;101515.56;1735482;82;21448;-79
2022/11/20 09:00:05;;;;;;;44.67;18.20;;;;;;;2.42;100.00;101511.92;1735749;82;21221;-77
2022/11/20 09:02:32;;;;;;;39.95;16.73;;;;;;;2.55;100.00;101500.63;1735580;82;21539;-77
2022/11/20 09:04:58;;;;;;;42.45;16.95;;;;;;;2.57;100.00;101487.46;1735609;82;21069;-79
2022/11/20 09:07:24;;;;;;;42.90;16.80;;;;;;;2.53;100.00;101482.20;1735504;82;21583;-80
2022/11/20 09:09:51;;;;;;;45.30;18.42;;;;;;;2.47;100.00;101477.11;1735462;82;21071;-79
2022/11/20 09:12:17;;;;;;;51.15;19.75;;;;;;;2.46;100.00;101465.31;1735446;82;21057;-79
2022/11/20 09:14:43;;;;;;;47.55;18.23;;;;;;;2.53;100.00;101451.61;1735666;82;20998;-78
2022/11/20 09:17:13;;;;;;;51.42;19.70;;;;;;;2.50;100.00;101444.00;1695320;84;20907;-79
2022/11/20 09:19:39;;;;;;;47.73;19.25;;;;;;;2.52;100.00;101429.98;1695168;84;21030;-79
2022/11/20 09:22:04;;;;;;;48.95;18.77;;;;;;;2.42;100.00;101438.77;1695484;84;21221;-79
2022/11/20 09:24:30;;;;;;;54.80;20.85;;;;;;;2.40;100.00;101432.80;1711497;82;20937;-84
2022/11/20 09:26:56;;;;;;;51.37;19.60;;;;;;;2.37;100.00;101427.34;1737868;81;21084;-79
2022/11/20 09:29:22;;;;;;;56.28;20.25;;;;;;;2.35;100.00;101424.55;1737954;82;20835;-77
2022/11/20 09:31:48;;;;;;;56.73;20.55;;;;;;;2.30;100.00;101421.63;1737993;82;21703;-79
2022/11/20 09:34:14;;;;;;;51.10;19.98;;;;;;;2.40;100.00;101412.85;1737760;82;21123;-80
2022/11/20 09:36:40;;;;;;;58.80;21.57;;;;;;;2.46;100.00;101406.27;1737707;82;21046;-85
2022/11/20 09:39:06;;;;;;;50.83;20.12;;;;;;;2.39;100.00;101401.39;1737528;82;20961;-77
2022/11/20 09:41:38;;;;;;;50.33;20.08;;;;;;;2.50;100.00;101406.24;1710419;82;21052;-78
2022/11/20 09:44:30;;;;;;;55.23;21.35;;;;;;;2.47;100.00;101425.72;1750339;81;21076;-78
2022/11/20 09:47:04;;;;;;;57.08;21.40;;;;;;;2.46;100.00;101418.25;1753648;81;21076;-80
2022/11/20 09:49:54;;;;;;;48.85;19.45;;;;;;;2.43;100.00;101410.64;1762236;80;21065;-84
2022/11/20 09:53:02;;;;;;;46.23;19.42;;;;;;;2.51;100.00;101403.07;1752689;81;21516;-80
2022/11/20 09:55:31;;;;;;;44.77;18.75;;;;;;;2.45;100.00;101419.27;1762459;79;21558;-83
2022/11/20 09:57:59;;;;;;;48.68;18.92;;;;;;;2.43;100.00;101415.95;1768368;79;21058;-83
2022/11/20 10:00:28;;;;;;;45.12;19.75;;;;;;;2.50;100.00;101401.44;1767383;80;21177;-82
2022/11/20 10:03:06;;;;;;;43.70;18.92;;;;;;;2.44;100.00;101391.03;1738304;81;21039;-84
2022/11/20 10:05:37;;;;;;;41.75;17.80;;;;;;;2.57;100.00;101395.67;1641054;86;21644;-79
2022/11/20 10:08:23;;;;;;;41.13;16.82;;;;;;;2.54;100.00;101381.41;1638430;87;21572;-83
2022/11/20 10:11:20;;;;;;;47.30;17.30;;;;;;;2.58;100.00;101372.03;1640984;87;21083;-82
2022/11/20 10:14:20;;;;;;;40.95;16.67;;;;;;;2.56;100.00;101368.76;1641257;87;21424;-81
2022/11/20 10:17:26;;;;;;;43.38;17.92;;;;;;;2.61;100.00;101358.35;1659617;85;21624;-81
2022/11/20 10:20:45;;;;;;;38.78;16.05;;;;;;;2.66;100.00;101341.32;1661175;86;21572;-82
2022/11/20 10:23:35;;;;;;;40.92;16.30;;;;;;;2.59;100.00;101336.45;1660821;85;21582;-87
2022/11/20 10:26:18;;;;;;;36.48;14.68;;;;;;;2.61;100.00;101335.73;1667244;86;21077;-78
2022/11/20 10:28:58;;;;;;;39.50;16.10;;;;;;;2.61;100.00;101322.95;1625871;86;21243;-82
2022/11/20 10:31:40;;;;;;;39.88;16.82;;;;;;;2.60;100.00;101332.77;1665442;86;22023;-81
2022/11/20 10:34:33;;;;;;;39.70;15.70;;;;;;;2.64;100.00;101336.69;1666439;86;21062;-81
2022/11/20 10:37:18;;;;;;;36.93;14.63;;;;;;;2.61;100.00;101328.27;1667102;86;21067;-81
2022/11/20 10:40:01;;;;;;;33.95;13.25;;;;;;;2.66;100.00;101322.70;1605309;87;21716;-84
2022/11/20 10:42:44;;;;;;;34.40;12.85;;;;;;;2.71;100.00;101324.29;1605616;88;21160;-81
2022/11/20 10:45:28;;;;;;;31.48;12.55;;;;;;;2.63;100.00;101334.23;1527570;92;21588;-81
2022/11/20 10:48:17;;;;;;;42.75;17.05;;;;;;;2.59;100.00;101334.27;1527150;92;21124;-79
2022/11/20 10:51:12;;;;;;;31.20;12.55;;;;;;;2.61;100.00;101328.27;1452626;97;21084;-82
2022/11/20 10:54:04;;;;;;;43.55;16.32;;;;;;;2.67;100.00;101312.36;1495582;94;21111;-82
2022/11/20 10:56:47;;;;;;;34.50;14.20;;;;;;;2.61;100.00;101289.17;1493571;94;21328;-80
2022/11/20 10:59:45;;;;;;;36.17;14.68;;;;;;;2.72;100.00;101259.40;1495236;94;21554;-78
2022/11/20 11:02:24;;;;;;;35.33;14.58;;;;;;;2.68;100.00;101258.66;1521266;91;21109;-86
2022/11/20 11:04:53;;;;;;;34.40;13.85;;;;;;;2.75;100.00;101254.20;1567295;90;21652;-81
2022/11/20 11:07:33;;;;;;;36.13;14.75;;;;;;;2.61;100.00;101238.62;1516999;93;21214;-80
2022/11/20 11:09:59;;;;;;;35.25;13.55;;;;;;;2.77;100.00;101250.03;1512462;90;21370;-83
2022/11/20 11:12:28;;;;;;;43.78;16.45;;;;;;;2.65;100.00;101251.88;1517138;92;21147;-84
2022/11/20 11:14:57;;;;;;;36.17;14.13;;;;;;;2.66;100.00;101252.19;1522311;92;21165;-83
2022/11/20 11:17:30;;;;;;;38.15;15.15;;;;;;;2.70;100.00;101243.30;1509609;93;21117;-84
2022/11/20 11:20:06;;;;;;;39.83;15.70;;;;;;;2.66;100.00;101240.20;1507223;93;21129;-82
2022/11/20 11:22:38;;;;;;;42.93;16.82;;;;;;;2.66;100.00;101236.22;1551625;90;21919;-84
2022/11/20 11:25:04;;;;;;;41.53;16.67;;;;;;;2.65;100.00;101242.56;1546518;91;21130;-83
2022/11/20 11:27:30;;;;;;;41.75;16.00;;;;;;;2.60;100.00;101257.45;1584255;88;21612;-85